createdAt,value
2018-07-11T00:00:57.414Z,14.80
2018-07-11T00:03:37.037Z,14.70
2018-07-11T00:06:05.519Z,14.70
2018-07-11T00:08:33.949Z,14.60
2018-07-11T00:11:02.736Z,14.50
2018-07-11T00:13:31.158Z,14.40
2018-07-11T00:15:59.686Z,14.40
2018-07-11T00:18:28.181Z,14.30
2018-07-11T00:20:56.761Z,14.30
2018-07-11T00:23:25.228Z,14.30
2018-07-11T00:25:53.713Z,14.20
2018-07-11T00:28:22.211Z,14.10
2018-07-11T00:30:50.740Z,13.90
2018-07-11T00:33:19.374Z,13.90
2018-07-11T00:35:48.514Z,13.80
2018-07-11T00:38:17.007Z,13.70
2018-07-11T00:40:45.552Z,13.60
2018-07-11T00:43:14.097Z,13.60
2018-07-11T00:48:10.854Z,13.40
2018-07-11T00:50:39.316Z,13.40
2018-07-11T00:53:07.940Z,13.30
2018-07-11T00:55:37.159Z,13.20
2018-07-11T00:58:13.489Z,13.20
2018-07-11T01:00:42.005Z,13.10
2018-07-11T01:03:10.529Z,13.10
2018-07-11T01:05:39.045Z,13.10
2018-07-11T01:08:07.592Z,13.00
2018-07-11T01:10:36.154Z,13.10
2018-07-11T01:13:04.949Z,13.10
2018-07-11T01:15:33.474Z,13.00
2018-07-11T01:18:07.281Z,13.00
2018-07-11T01:20:35.801Z,12.90
2018-07-11T01:23:04.269Z,12.90
2018-07-11T01:25:32.708Z,12.90
2018-07-11T01:28:01.143Z,12.90
2018-07-11T01:30:29.676Z,12.80
2018-07-11T01:32:58.795Z,12.80
2018-07-11T01:35:27.351Z,12.80
2018-07-11T01:37:55.866Z,12.70
2018-07-11T01:40:24.373Z,12.80
2018-07-11T01:42:52.829Z,12.80
2018-07-11T01:45:21.604Z,12.80
2018-07-11T01:47:50.059Z,12.70
2018-07-11T01:50:18.562Z,12.60
2018-07-11T01:52:55.851Z,12.60
2018-07-11T01:55:27.502Z,12.50
2018-07-11T01:57:59.846Z,12.40
2018-07-11T02:00:29.297Z,12.40
2018-07-11T02:02:58.334Z,12.30
2018-07-11T02:05:27.791Z,12.30
2018-07-11T02:07:56.623Z,12.20
2018-07-11T02:10:25.397Z,12.20
2018-07-11T02:15:22.023Z,12.20
2018-07-11T02:17:50.927Z,12.20
2018-07-11T02:20:19.503Z,12.20
2018-07-11T02:22:51.626Z,12.10
2018-07-11T02:25:20.758Z,12.10
2018-07-11T02:30:17.920Z,12.00
2018-07-11T02:32:46.455Z,12.10
2018-07-11T02:35:14.945Z,12.00
2018-07-11T02:37:43.372Z,12.10
2018-07-11T02:40:11.869Z,12.00
2018-07-11T02:42:40.416Z,12.00
2018-07-11T02:45:08.873Z,11.90
2018-07-11T02:47:42.834Z,11.90
2018-07-11T02:50:11.716Z,11.90
2018-07-11T02:52:40.469Z,11.90
2018-07-11T02:55:09.032Z,11.90
2018-07-11T02:57:37.502Z,11.80
2018-07-11T03:00:06.085Z,11.80
2018-07-11T03:02:34.560Z,11.80
2018-07-11T03:05:03.096Z,11.80
2018-07-11T03:07:31.638Z,11.80
2018-07-11T03:10:02.951Z,11.80
2018-07-11T03:12:32.332Z,11.80
2018-07-11T03:15:01.099Z,11.80
2018-07-11T03:17:29.717Z,11.80
2018-07-11T03:19:58.214Z,11.80
2018-07-11T03:22:26.734Z,11.80
2018-07-11T03:24:55.445Z,11.80
2018-07-11T03:27:23.932Z,11.80
2018-07-11T03:29:52.331Z,11.80
2018-07-11T03:32:20.830Z,11.90
2018-07-11T03:34:49.277Z,11.90
2018-07-11T03:37:17.772Z,11.90
2018-07-11T03:39:52.819Z,11.90
2018-07-11T03:42:21.342Z,11.90
2018-07-11T03:44:49.817Z,11.80
2018-07-11T03:47:18.236Z,11.80
2018-07-11T03:49:46.614Z,11.80
2018-07-11T03:52:15.019Z,11.80
2018-07-11T03:54:43.497Z,11.80
2018-07-11T03:57:11.992Z,11.80
2018-07-11T03:59:40.488Z,11.80
2018-07-11T04:02:08.982Z,11.80
2018-07-11T04:04:37.464Z,11.80
2018-07-11T04:07:06.031Z,11.80
2018-07-11T04:09:34.488Z,11.90
2018-07-11T04:12:02.909Z,11.90
2018-07-11T04:14:31.388Z,12.00
2018-07-11T04:16:59.829Z,12.10
2018-07-11T04:19:28.294Z,12.30
2018-07-11T04:21:56.728Z,12.40
2018-07-11T04:24:25.386Z,12.50
2018-07-11T04:26:53.813Z,12.60
2018-07-11T04:29:22.273Z,12.70
2018-07-11T04:31:50.728Z,12.90
2018-07-11T04:34:19.188Z,13.20
2018-07-11T04:36:47.593Z,13.40
2018-07-11T04:39:16.025Z,13.50
2018-07-11T04:41:44.372Z,13.60
2018-07-11T04:44:12.836Z,13.80
2018-07-11T04:46:41.227Z,14.10
2018-07-11T04:49:09.666Z,14.10
2018-07-11T04:51:38.230Z,14.20
2018-07-11T04:54:06.624Z,14.50
2018-07-11T04:56:35.032Z,14.70
2018-07-11T04:59:03.498Z,14.60
2018-07-11T05:01:31.969Z,14.90
2018-07-11T05:04:00.635Z,15.10
2018-07-11T05:06:28.991Z,15.30
2018-07-11T05:08:57.427Z,15.30
2018-07-11T05:11:26.161Z,15.50
2018-07-11T05:13:54.544Z,15.80
2018-07-11T05:18:51.051Z,18.60
2018-07-11T05:21:19.429Z,20.70
2018-07-11T05:23:47.800Z,21.60
2018-07-11T05:26:16.150Z,22.90
2018-07-11T05:28:44.864Z,24.00
2018-07-11T05:31:13.229Z,25.90
2018-07-11T05:33:41.635Z,25.70
2018-07-11T05:36:10.065Z,26.90
2018-07-11T05:38:38.428Z,27.40
2018-07-11T05:41:06.943Z,28.60
2018-07-11T05:43:35.316Z,27.30
2018-07-11T05:46:03.746Z,28.20
2018-07-11T05:48:32.624Z,28.30
2018-07-11T05:51:01.190Z,29.90
2018-07-11T05:53:29.629Z,29.30
2018-07-11T05:55:58.048Z,29.70
2018-07-11T05:58:26.520Z,29.70
2018-07-11T06:00:54.876Z,30.40
2018-07-11T06:03:23.243Z,31.60
2018-07-11T06:05:51.722Z,31.50
2018-07-11T06:08:20.095Z,31.40
2018-07-11T06:10:48.455Z,31.50
2018-07-11T06:13:16.819Z,32.60
2018-07-11T06:15:45.211Z,33.20
2018-07-11T06:18:13.628Z,33.00
2018-07-11T06:20:42.067Z,32.80
2018-07-11T06:23:10.421Z,33.50
2018-07-11T06:25:38.844Z,32.70
2018-07-11T06:28:07.373Z,32.20
2018-07-11T06:30:35.692Z,33.50
2018-07-11T06:33:04.095Z,33.10
2018-07-11T06:35:32.466Z,31.90
2018-07-11T06:38:01.068Z,32.80
2018-07-11T06:40:29.459Z,33.90
2018-07-11T06:42:57.839Z,34.20
2018-07-11T06:45:26.624Z,33.70
2018-07-11T06:47:55.007Z,33.80
2018-07-11T06:50:23.625Z,33.20
2018-07-11T06:52:52.085Z,34.70
2018-07-11T06:55:20.468Z,35.90
2018-07-11T06:57:48.805Z,35.70
2018-07-11T07:00:17.156Z,36.00
2018-07-11T07:02:45.504Z,36.00
2018-07-11T07:05:13.959Z,34.30
2018-07-11T07:07:42.304Z,34.30
2018-07-11T07:10:10.870Z,33.50
2018-07-11T07:12:39.219Z,32.80
2018-07-11T07:15:07.607Z,35.30
2018-07-11T07:17:36.111Z,36.20
2018-07-11T07:20:04.708Z,35.40
2018-07-11T07:22:33.431Z,35.70
2018-07-11T07:25:01.941Z,36.70
2018-07-11T07:27:30.471Z,34.30
2018-07-11T07:29:58.987Z,36.30
2018-07-11T07:32:27.381Z,36.50
2018-07-11T07:34:55.823Z,35.30
2018-07-11T07:37:24.553Z,34.90
2018-07-11T07:39:56.072Z,36.60
2018-07-11T07:42:24.504Z,37.50
2018-07-11T07:44:53.079Z,36.70
2018-07-11T07:47:27.030Z,34.40
2018-07-11T07:49:55.588Z,33.60
2018-07-11T07:52:23.971Z,34.50
2018-07-11T07:54:52.500Z,36.40
2018-07-11T07:57:21.028Z,37.10
2018-07-11T07:59:49.428Z,36.40
2018-07-11T08:02:18.094Z,36.90
2018-07-11T08:04:47.317Z,36.80
2018-07-11T08:07:15.742Z,36.30
2018-07-11T08:09:44.190Z,38.10
2018-07-11T08:12:12.675Z,39.30
2018-07-11T08:14:41.060Z,40.20
2018-07-11T08:17:09.523Z,39.30
2018-07-11T08:19:37.879Z,38.80
2018-07-11T08:22:17.879Z,34.90
2018-07-11T08:24:57.560Z,36.10
2018-07-11T08:27:44.223Z,32.80
2018-07-11T08:31:22.854Z,34.60
2018-07-11T08:34:15.923Z,35.70
2018-07-11T08:39:00.919Z,33.70
2018-07-11T08:41:40.819Z,32.10
2018-07-11T08:44:27.344Z,30.90
2018-07-11T08:49:15.069Z,31.40
2018-07-11T08:52:52.448Z,33.90
2018-07-11T08:55:36.697Z,29.50
2018-07-11T09:00:24.474Z,30.90
2018-07-11T09:05:12.284Z,32.10
2018-07-11T09:08:52.798Z,33.40
2018-07-11T09:11:35.973Z,31.70
2018-07-11T09:16:19.985Z,34.50
2018-07-11T09:19:16.878Z,36.90
2018-07-11T09:24:02.851Z,34.30
2018-07-11T09:26:31.323Z,31.80
2018-07-11T09:28:59.908Z,30.30
2018-07-11T09:31:28.379Z,34.30
2018-07-11T09:33:56.811Z,33.50
2018-07-11T09:36:25.197Z,29.30
2018-07-11T09:38:54.147Z,29.50
2018-07-11T09:41:22.777Z,28.90
2018-07-11T09:43:51.204Z,29.30
2018-07-11T09:46:19.599Z,31.90
2018-07-11T09:48:48.012Z,30.00
2018-07-11T09:51:16.430Z,29.70
2018-07-11T09:53:44.892Z,28.40
2018-07-11T09:56:13.328Z,28.80
2018-07-11T09:58:42.063Z,29.50
2018-07-11T10:01:15.797Z,28.00
2018-07-11T10:03:44.316Z,28.70
2018-07-11T10:06:12.756Z,28.50
2018-07-11T10:08:41.239Z,28.10
2018-07-11T10:11:09.747Z,27.40
2018-07-11T10:13:38.214Z,26.80
2018-07-11T10:16:06.596Z,26.90
2018-07-11T10:18:34.968Z,27.30
2018-07-11T10:21:03.430Z,26.30
2018-07-11T10:23:31.867Z,26.60
2018-07-11T10:26:00.273Z,26.80
2018-07-11T10:28:28.637Z,26.70
2018-07-11T10:30:57.053Z,27.00
2018-07-11T10:33:25.678Z,26.10
2018-07-11T10:35:54.228Z,26.90
2018-07-11T10:38:22.681Z,27.30
2018-07-11T10:40:51.268Z,26.80
2018-07-11T10:43:19.651Z,26.50
2018-07-11T10:45:48.063Z,26.60
2018-07-11T10:48:16.504Z,26.30
2018-07-11T10:50:44.895Z,26.30
2018-07-11T10:53:13.258Z,25.60
2018-07-11T10:55:41.694Z,26.10
2018-07-11T10:58:10.175Z,26.40
2018-07-11T11:00:38.555Z,26.30
2018-07-11T11:03:06.953Z,27.00
2018-07-11T11:05:35.336Z,26.80
2018-07-11T11:08:03.820Z,26.50
2018-07-11T11:10:32.240Z,25.90
2018-07-11T11:13:00.624Z,25.80
2018-07-11T11:15:29.046Z,25.50
2018-07-11T11:17:57.442Z,25.50
2018-07-11T11:20:26.076Z,25.70
2018-07-11T11:22:54.502Z,25.90
2018-07-11T11:25:22.930Z,25.80
2018-07-11T11:27:51.421Z,25.70
2018-07-11T11:30:19.904Z,26.10
2018-07-11T11:32:48.753Z,26.20
2018-07-11T11:35:17.107Z,26.20
2018-07-11T11:37:45.595Z,25.90
2018-07-11T11:40:13.962Z,26.80
2018-07-11T11:42:42.567Z,26.70
2018-07-11T11:45:11.196Z,27.00
2018-07-11T11:47:39.911Z,26.30
2018-07-11T11:50:08.580Z,26.60
2018-07-11T11:52:37.315Z,26.40
2018-07-11T11:55:05.732Z,26.50
2018-07-11T12:02:30.699Z,26.50
2018-07-11T12:04:59.084Z,25.90
2018-07-11T12:07:27.760Z,25.70
2018-07-11T12:09:56.204Z,25.80
2018-07-11T12:12:24.754Z,25.00
2018-07-11T12:14:53.239Z,25.00
2018-07-11T12:17:21.760Z,25.30
2018-07-11T12:19:50.200Z,25.50
2018-07-11T12:22:21.257Z,25.60
2018-07-11T12:24:49.898Z,25.80
2018-07-11T12:27:18.620Z,25.40
2018-07-11T12:29:47.283Z,25.10
2018-07-11T12:32:15.863Z,24.90
2018-07-11T12:34:44.612Z,25.20
2018-07-11T12:37:13.856Z,25.30
2018-07-11T12:39:42.245Z,25.30
2018-07-11T12:42:10.834Z,25.60
2018-07-11T12:44:39.223Z,25.70
2018-07-11T12:47:13.163Z,26.30
2018-07-11T12:49:41.711Z,27.10
2018-07-11T12:52:10.112Z,27.50
2018-07-11T12:54:38.543Z,27.60
2018-07-11T12:57:07.805Z,27.20
2018-07-11T12:59:36.274Z,26.50
2018-07-11T13:02:04.759Z,27.00
2018-07-11T13:04:33.186Z,27.30
2018-07-11T13:09:30.443Z,27.10
2018-07-11T13:11:58.859Z,27.30
2018-07-11T13:14:27.340Z,27.50
2018-07-11T13:16:55.844Z,27.10
2018-07-11T13:19:24.479Z,27.00
2018-07-11T13:21:52.968Z,26.80
2018-07-11T13:24:21.398Z,26.80
2018-07-11T13:26:49.947Z,26.40
2018-07-11T13:29:18.399Z,26.50
2018-07-11T13:31:46.890Z,26.20
2018-07-11T13:34:15.847Z,26.00
2018-07-11T13:36:44.434Z,26.40
2018-07-11T13:39:17.356Z,26.10
2018-07-11T13:41:46.825Z,26.00
2018-07-11T13:44:15.410Z,25.80
2018-07-11T13:46:44.403Z,25.20
2018-07-11T13:49:13.455Z,25.10
2018-07-11T13:51:41.977Z,24.80
2018-07-11T13:54:11.131Z,24.50
2018-07-11T13:56:39.552Z,24.40
2018-07-11T13:59:08.106Z,24.20
2018-07-11T14:01:36.613Z,24.00
2018-07-11T14:04:05.045Z,23.90
2018-07-11T14:06:33.508Z,23.80
2018-07-11T14:09:01.976Z,23.70
2018-07-11T14:11:30.380Z,23.50
2018-07-11T14:13:58.904Z,23.60
2018-07-11T14:16:27.296Z,23.40
2018-07-11T14:18:55.651Z,23.20
2018-07-11T14:21:24.036Z,23.20
2018-07-11T14:23:52.809Z,23.10
2018-07-11T14:26:21.551Z,23.00
2018-07-11T14:28:51.454Z,23.00
2018-07-11T14:31:34.862Z,22.80
2018-07-11T14:34:06.470Z,22.60
2018-07-11T14:36:35.399Z,22.50
2018-07-11T14:39:05.242Z,22.50
2018-07-11T14:41:34.108Z,22.40
2018-07-11T14:44:02.648Z,22.30
2018-07-11T14:46:31.661Z,22.40
2018-07-11T14:49:00.571Z,22.40
2018-07-11T14:51:29.314Z,22.30
2018-07-11T14:53:58.290Z,22.20
2018-07-11T14:56:26.728Z,22.10
2018-07-11T14:58:56.779Z,22.00
2018-07-11T15:01:25.357Z,21.50
2018-07-11T15:03:54.256Z,21.10
2018-07-11T15:06:23.473Z,21.20
2018-07-11T15:08:52.768Z,21.10
2018-07-11T15:11:21.596Z,21.30
2018-07-11T15:13:50.120Z,21.30
2018-07-11T15:16:18.776Z,21.60
2018-07-11T15:18:47.503Z,22.00
2018-07-11T15:21:16.428Z,22.20
2018-07-11T15:23:45.080Z,22.40
2018-07-11T15:26:14.095Z,22.60
2018-07-11T15:28:42.981Z,23.30
2018-07-11T15:31:11.500Z,23.20
2018-07-11T15:33:39.999Z,23.50
2018-07-11T15:36:08.906Z,23.50
2018-07-11T15:38:38.004Z,23.40
2018-07-11T15:41:06.773Z,23.00
2018-07-11T15:43:35.213Z,22.60
2018-07-11T15:46:03.981Z,22.40
2018-07-11T15:48:32.651Z,22.20
2018-07-11T15:51:01.237Z,22.20
2018-07-11T15:53:30.116Z,22.30
2018-07-11T15:55:59.695Z,22.30
2018-07-11T15:58:28.712Z,22.30
2018-07-11T16:01:04.691Z,22.20
2018-07-11T16:03:35.839Z,22.20
2018-07-11T16:06:04.728Z,21.90
2018-07-11T16:08:33.177Z,22.00
2018-07-11T16:11:03.909Z,21.90
2018-07-11T16:13:32.803Z,21.50
2018-07-11T16:16:01.296Z,21.10
2018-07-11T16:18:29.700Z,20.50
2018-07-11T16:20:58.068Z,20.20
2018-07-11T16:23:26.476Z,19.80
2018-07-11T16:25:55.173Z,19.60
2018-07-11T16:28:23.548Z,19.50
2018-07-11T16:30:52.133Z,19.40
2018-07-11T16:33:21.228Z,19.50
2018-07-11T16:35:49.811Z,19.50
2018-07-11T16:38:18.252Z,19.70
2018-07-11T16:40:46.843Z,19.60
2018-07-11T16:43:15.459Z,19.50
2018-07-11T16:45:44.105Z,19.50
2018-07-11T16:48:12.573Z,19.60
2018-07-11T16:50:41.368Z,19.60
2018-07-11T16:53:09.880Z,19.70
2018-07-11T16:55:38.570Z,19.70
2018-07-11T16:58:07.075Z,19.70
2018-07-11T17:00:42.349Z,19.80
2018-07-11T17:03:13.345Z,19.80
2018-07-11T17:05:49.457Z,19.60
2018-07-11T17:08:34.294Z,19.30
2018-07-11T17:11:35.889Z,19.20
2018-07-11T17:14:05.352Z,19.20
2018-07-11T17:17:06.035Z,19.20
2018-07-11T17:20:07.813Z,19.30
2018-07-11T17:22:50.237Z,19.10
2018-07-11T17:25:20.259Z,19.10
2018-07-11T17:27:52.904Z,19.10
2018-07-11T17:30:21.440Z,19.00
2018-07-11T17:32:49.927Z,19.00
2018-07-11T17:35:18.584Z,19.00
2018-07-11T17:37:47.676Z,18.90
2018-07-11T17:40:16.215Z,18.90
2018-07-11T17:42:45.171Z,18.90
2018-07-11T17:45:19.577Z,19.00
2018-07-11T17:48:02.716Z,18.90
2018-07-11T17:50:31.132Z,18.80
2018-07-11T17:53:08.336Z,18.80
2018-07-11T17:56:13.831Z,19.30
2018-07-11T17:58:53.197Z,19.20
2018-07-11T18:01:28.988Z,19.40
2018-07-11T18:04:01.518Z,19.20
2018-07-11T18:06:36.994Z,19.20
2018-07-11T18:09:07.667Z,19.30
2018-07-11T18:11:54.796Z,19.40
2018-07-11T18:15:08.050Z,19.20
2018-07-11T18:17:48.584Z,19.20
2018-07-11T18:20:28.463Z,19.20
2018-07-11T18:23:17.711Z,19.00
2018-07-11T18:28:21.665Z,19.00
2018-07-11T18:31:00.873Z,19.10
2018-07-11T18:33:43.664Z,19.10
2018-07-11T18:36:26.656Z,19.20
2018-07-11T18:39:13.375Z,19.30
2018-07-11T18:42:23.483Z,19.30
2018-07-11T18:46:10.462Z,19.30
2018-07-11T18:48:52.472Z,19.40
2018-07-11T18:51:32.841Z,19.30
2018-07-11T18:54:08.645Z,19.30
2018-07-11T18:56:48.799Z,19.30
2018-07-11T18:59:28.280Z,19.40
2018-07-11T19:03:06.043Z,19.30
2018-07-11T19:06:50.333Z,19.20
2018-07-11T19:09:25.108Z,19.20
2018-07-11T19:11:56.094Z,19.10
2018-07-11T19:14:39.000Z,19.00
2018-07-11T19:19:21.637Z,19.10
2018-07-11T19:22:02.535Z,19.10
2018-07-11T19:24:37.880Z,18.90
2018-07-11T19:27:16.210Z,18.90
2018-07-11T19:30:56.517Z,18.90
2018-07-11T19:33:40.348Z,18.90
2018-07-11T19:36:20.182Z,18.70
2018-07-11T19:38:58.184Z,18.80
2018-07-11T19:42:35.962Z,18.80
2018-07-11T19:45:47.370Z,18.70
2018-07-11T19:48:57.096Z,18.70
2018-07-11T19:51:37.471Z,18.80
2018-07-11T19:54:18.402Z,18.80
2018-07-11T19:56:48.884Z,18.80
2018-07-11T19:59:17.404Z,18.70
2018-07-11T20:01:46.560Z,18.70
2018-07-11T20:04:15.272Z,18.80
2018-07-11T20:06:44.141Z,18.80
2018-07-11T20:09:13.456Z,18.80
2018-07-11T20:11:42.101Z,18.80
2018-07-11T20:14:10.592Z,18.80
2018-07-11T20:16:39.125Z,18.70
2018-07-11T20:19:07.773Z,18.70
2018-07-11T20:21:36.354Z,18.70
2018-07-11T20:24:04.909Z,18.80
2018-07-11T20:26:33.547Z,18.80
2018-07-11T20:29:02.047Z,18.80
2018-07-11T20:31:30.635Z,18.70
2018-07-11T20:33:59.051Z,18.70
2018-07-11T20:36:27.530Z,18.60
2018-07-11T20:38:56.311Z,18.60
2018-07-11T20:41:25.024Z,18.50
2018-07-11T20:43:53.475Z,18.50
2018-07-11T20:46:22.079Z,18.50
2018-07-11T20:48:50.631Z,18.40
2018-07-11T20:51:19.119Z,18.40
2018-07-11T20:53:47.595Z,18.30
2018-07-11T20:56:15.994Z,18.30
2018-07-11T20:58:55.722Z,18.30
2018-07-11T21:01:35.428Z,18.30
2018-07-11T21:04:44.394Z,18.30
2018-07-11T21:07:24.590Z,18.30
2018-07-11T21:10:06.173Z,18.10
2018-07-11T21:12:49.318Z,18.00
2018-07-11T21:19:06.200Z,17.90
2018-07-11T21:21:35.350Z,17.80
2018-07-11T21:24:04.585Z,17.70
2018-07-11T21:26:32.963Z,17.60
2018-07-11T21:29:01.349Z,17.60
2018-07-11T21:31:29.819Z,17.50
2018-07-11T21:33:58.263Z,17.40
2018-07-11T21:36:26.624Z,17.40
2018-07-11T21:38:55.013Z,17.40
2018-07-11T21:41:23.528Z,17.30
2018-07-11T21:43:52.131Z,17.20
2018-07-11T21:46:20.831Z,17.20
2018-07-11T21:48:49.198Z,17.20
2018-07-11T21:51:17.653Z,17.20
2018-07-11T21:53:46.044Z,17.30
2018-07-11T21:56:14.403Z,17.30
2018-07-11T21:58:42.811Z,17.20
2018-07-11T22:01:12.195Z,17.20
2018-07-11T22:03:40.676Z,17.20
2018-07-11T22:06:09.083Z,17.30
2018-07-11T22:08:37.523Z,17.30
2018-07-11T22:11:05.976Z,17.40
2018-07-11T22:13:34.350Z,17.40
2018-07-11T22:16:02.735Z,17.40
2018-07-11T22:18:38.722Z,17.40
2018-07-11T22:21:07.015Z,17.40
2018-07-11T22:23:34.300Z,17.40
2018-07-11T22:28:29.473Z,17.50
2018-07-11T22:30:56.771Z,17.40
2018-07-11T22:33:24.213Z,17.40
2018-07-11T22:35:51.530Z,17.40
2018-07-11T22:38:18.846Z,17.30
2018-07-11T22:40:46.360Z,17.40
2018-07-11T22:43:13.720Z,17.40
2018-07-11T22:45:41.019Z,17.40
2018-07-11T22:48:08.319Z,17.40
2018-07-11T22:50:35.610Z,17.50
2018-07-11T22:53:02.908Z,17.50
2018-07-11T22:55:30.209Z,17.40
2018-07-11T22:57:57.535Z,17.50
2018-07-11T23:00:24.821Z,17.50
2018-07-11T23:02:52.129Z,17.50
2018-07-11T23:05:19.423Z,17.50
2018-07-11T23:07:46.752Z,17.50
2018-07-11T23:10:14.066Z,17.50
2018-07-11T23:12:41.375Z,17.60
2018-07-11T23:15:08.665Z,17.50
2018-07-11T23:17:35.979Z,17.50
2018-07-11T23:20:03.312Z,17.60
2018-07-11T23:22:30.618Z,17.60
2018-07-11T23:24:57.913Z,17.60
2018-07-11T23:27:25.247Z,17.50
2018-07-11T23:29:52.538Z,17.40
2018-07-11T23:32:19.869Z,17.50
2018-07-11T23:34:47.176Z,17.50
2018-07-11T23:37:14.478Z,17.50
2018-07-11T23:39:41.780Z,17.50
2018-07-11T23:42:09.112Z,17.50
2018-07-11T23:44:36.395Z,17.50
2018-07-11T23:47:03.701Z,17.50
2018-07-11T23:49:31.025Z,17.50
2018-07-11T23:51:58.351Z,17.60
2018-07-11T23:54:25.666Z,17.60
2018-07-11T23:56:52.987Z,17.60
2018-07-11T23:59:20.292Z,17.60
